Ashkum, Illinois
Current Conditions -  °F | °C
As of 11:35 AM on Sunday 23 Nov 2014 (Local Time) from KIKK Reporting Station
Light Rain Light Rain  
Wind Chill: 51°   Ceiling: 1900
Heat Index: 51°   Visibility: 10mi
Dew Point: 47°   Wind: 7mph
Humidity: 86%   Direction: 120°ESE
Pressure: 29.65"   Gusts: NA
Location:  40.88°N, 87.96°W
Report Text: KIKK 231735Z AUTO 12006KT 10SM -RA BKN019 OVC027 11/08 A2965 RMK AO2 T01050082
Loading
Personal Weather Stations






























Interactive Weather Map New forecast layout! Learn more

10-Day Weather Forecast

Advertisements
Track Severe Weather on mobile